Thomson Majesty — 9HA2188 — position and weather

sailwx.info

Track history (hours):
 
Tides and Currents Weather Stations Pressure Air Temp Water Temp Dewpoint Dewpoint Depression Visibility Wind Speed Wind Dir Waves Ship Positions

Thomson Majesty

Last reported at 2017-Feb-26 03:31 UTC. Time now 2017-Feb-28 05:40 UTC.
Position N 28°39' W 016°18'.

Length 207 m; draft 6.2 m.

Type: Ship. MMSI: 248124000.

Date/timePositionNaut miles runAvg speedWind from/ knotsBaromVisibWave heightAir tempDewpointWater temp
2017-Feb-26 03:31N 28°39' W 016°18'1313.0
2017-Feb-26 02:33N 28°35' W 016°04'1413.8
2017-Feb-26 01:33N 28°27' W 015°51'1413.8
2017-Feb-26 00:33N 28°20' W 015°37'1413.6
2017-Feb-25 23:33N 28°13' W 015°24'5 5.2
2017-Feb-25 22:33N 28°08' W 015°25'0 0.0
2017-Feb-25 21:33N 28°08' W 015°25'0 0.0
2017-Feb-25 20:27N 28°08' W 015°25'0 0.0
2017-Feb-25 19:24N 28°08' W 015°25'0 0.0
2017-Feb-25 18:27N 28°08' W 015°25'0 0.0
2017-Feb-25 17:30N 28°08' W 015°25'0 0.0
2017-Feb-25 16:30N 28°08' W 015°25'0 0.0
2017-Feb-25 15:30N 28°08' W 015°25'0 0.0
2017-Feb-25 14:18N 28°08' W 015°25'0 0.0
2017-Feb-25 13:33N 28°08' W 015°25'0 0.0
2017-Feb-25 12:33N 28°08' W 015°25'0 0.0
2017-Feb-25 11:33N 28°08' W 015°25'0 0.0
2017-Feb-25 10:33N 28°08' W 015°25'0 0.0
2017-Feb-25 09:33N 28°08' W 015°25'0 0.0
2017-Feb-25 08:33N 28°08' W 015°25'0 0.0
2017-Feb-25 07:33N 28°08' W 015°25'7 7.0
2017-Feb-25 06:33N 28°11' W 015°18'1010.2
2017-Feb-25 05:34N 28°21' W 015°17'1110.9
2017-Feb-25 04:33N 28°28' W 015°26'1111.1
2017-Feb-25 03:34N 28°34' W 015°37'10 9.7
2017-Feb-25 02:33N 28°28' W 015°46'1010.2
2017-Feb-25 01:33N 28°23' W 015°56'1211.7
2017-Feb-25 00:33N 28°26' W 016°09'6 4.5
2017-Feb-24 23:20N 28°28' W 016°15'0 0.0
2017-Feb-24 22:26N 28°28' W 016°15'0 0.0
2017-Feb-24 21:26N 28°28' W 016°15'0 0.0
2017-Feb-24 20:08N 28°28' W 016°15'0 0.0
2017-Feb-24 19:29N 28°28' W 016°15'0 0.0
2017-Feb-24 18:26N 28°28' W 016°15'0 0.0
2017-Feb-24 17:32N 28°28' W 016°15'0 0.0
2017-Feb-24 16:32N 28°28' W 016°15'0 0.0
2017-Feb-24 15:32N 28°28' W 016°15'0 0.0
2017-Feb-24 14:32N 28°28' W 016°15'0 0.0
2017-Feb-24 13:32N 28°28' W 016°15'0 0.0
2017-Feb-24 12:32N 28°28' W 016°15'0 0.0
2017-Feb-24 11:32N 28°28' W 016°15'0 0.0
2017-Feb-24 10:32N 28°28' W 016°15'0 0.0
2017-Feb-24 08:26N 28°28' W 016°15'0 0.0
2017-Feb-24 07:26N 28°28' W 016°15'0 0.0
2017-Feb-24 06:26N 28°28' W 016°15'0 0.0
2017-Feb-24 05:29N 28°28' W 016°15'1010.9
2017-Feb-24 04:33N 28°27' W 016°03'1211.9
2017-Feb-24 03:33N 28°31' W 015°51'1312.6
2017-Feb-24 02:33N 28°39' W 015°39'1313.0
2017-Feb-24 01:33N 28°40' W 015°25'1312.8
2017-Feb-24 00:33N 28°42' W 015°10'1312.7
2017-Feb-23 23:33N 28°43' W 014°56'1212.5
2017-Feb-23 22:33N 28°45' W 014°41'2712.7
2017-Feb-23 20:24N 28°48' W 014°10'1113.1
2017-Feb-23 19:33N 28°49' W 013°58'1110.9
2017-Feb-23 18:33N 28°46' W 013°46'1312.2
2017-Feb-23 17:31N 28°33' W 013°48'5 0.5
2017-Feb-23 07:32N 28°30' W 013°51'1111.0
2017-Feb-23 06:31N 28°35' W 013°40'1 1.5
2017-Feb-23 05:33N 28°36' W 013°39'1 1.1
2017-Feb-23 04:33N 28°36' W 013°38'1 1.2
2017-Feb-23 03:33N 28°37' W 013°37'1 1.0
2017-Feb-23 02:33N 28°38' W 013°36'1 1.2
2017-Feb-23 01:33N 28°39' W 013°35'1 1.2
2017-Feb-23 00:33N 28°40' W 013°34'1 0.9
2017-Feb-22 23:31N 28°40' W 013°34'1 1.2
2017-Feb-22 22:32N 28°41' W 013°33'1 1.3
2017-Feb-22 21:33N 28°42' W 013°32'2 2.2
2017-Feb-22 20:32N 28°40' W 013°31'4 3.6
2017-Feb-22 19:32N 28°41' W 013°27'1212.6
2017-Feb-22 18:33N 28°53' W 013°31'5 2.3
2017-Feb-22 16:31N 28°58' W 013°32'0 0.0
2017-Feb-22 15:31N 28°58' W 013°32'0 0.0
2017-Feb-22 14:31N 28°58' W 013°32'0 0.0
2017-Feb-22 13:31N 28°58' W 013°32'0 0.0
2017-Feb-22 12:25N 28°58' W 013°32'0 0.0
2017-Feb-22 11:31N 28°58' W 013°32'0 0.0
2017-Feb-22 10:31N 28°58' W 013°32'0 0.0
2017-Feb-22 09:25N 28°58' W 013°32'0 0.0
2017-Feb-22 08:31N 28°58' W 013°32'0 0.1
2017-Feb-22 07:33N 28°58' W 013°32'7 7.4
2017-Feb-22 06:33N 28°52' W 013°36'1111.0
2017-Feb-22 05:32N 28°49' W 013°49'1111.2
2017-Feb-22 04:32N 28°55' W 013°59'  
2017-Feb-18 10:32N 28°08' W 015°25'0 0.0
2017-Feb-18 09:32N 28°08' W 015°25'0 0.0
2017-Feb-18 08:32N 28°08' W 015°25'0 0.0
2017-Feb-18 07:32N 28°08' W 015°25'2 1.7
2017-Feb-18 06:33N 28°07' W 015°24'1414.4
2017-Feb-18 05:33N 28°20' W 015°18'1111.2
2017-Feb-18 04:33N 28°28' W 015°27'1211.7
2017-Feb-18 03:33N 28°34' W 015°38'1111.3
2017-Feb-18 02:33N 28°27' W 015°48'1010.4
2017-Feb-18 01:33N 28°22' W 015°58'1211.8
2017-Feb-18 00:33N 28°27' W 016°10'4 3.1
2017-Feb-17 23:22N 28°28' W 016°15'0 0.0
2017-Feb-17 22:04N 28°28' W 016°15'0 0.0
2017-Feb-17 21:25N 28°28' W 016°15'0 0.0
2017-Feb-17 20:10N 28°28' W 016°15'0 0.0
2017-Feb-17 19:25N 28°28' W 016°15'0 0.0
2017-Feb-17 18:28N 28°28' W 016°15'0 0.0
2017-Feb-17 17:28N 28°28' W 016°15'0 0.0
2017-Feb-17 16:28N 28°28' W 016°15'0 0.0
2017-Feb-17 15:28N 28°28' W 016°15'0 0.0
2017-Feb-17 14:31N 28°28' W 016°15'0 0.0
2017-Feb-17 13:31N 28°28' W 016°15'0 0.0
2017-Feb-17 12:28N 28°28' W 016°15'0 0.0
2017-Feb-17 11:31N 28°28' W 016°15'0 0.0
2017-Feb-17 10:31N 28°28' W 016°15'0 0.0
2017-Feb-17 09:31N 28°28' W 016°15'0 0.0
2017-Feb-17 08:07N 28°28' W 016°15'0 0.0
2017-Feb-17 07:25N 28°28' W 016°15'0 0.0
2017-Feb-17 06:25N 28°28' W 016°15'0 0.0
2017-Feb-17 05:28N 28°28' W 016°15'8 8.6
2017-Feb-17 04:33N 28°27' W 016°06'1515.5
2017-Feb-17 03:33N 28°33' W 015°49'1615.6
2017-Feb-17 02:33N 28°40' W 015°33'1616.5
2017-Feb-17 01:33N 28°41' W 015°15'1414.2
2017-Feb-17 00:33N 28°43' W 014°59'1312.9
2017-Feb-16 23:33N 28°44' W 014°44'1312.9
2017-Feb-16 22:33N 28°46' W 014°29'1313.0
2017-Feb-16 21:33N 28°47' W 014°15'1312.8
2017-Feb-16 20:33N 28°48' W 013°60'1312.6
2017-Feb-16 19:33N 28°49' W 013°46'1313.0
2017-Feb-16 18:33N 28°56' W 013°33'3 2.6
2017-Feb-16 17:30N 28°58' W 013°32'0 0.0
2017-Feb-16 15:24N 28°58' W 013°32'0 0.0
2017-Feb-16 14:30N 28°58' W 013°32'0 0.0
2017-Feb-16 13:30N 28°58' W 013°32'0 0.0
2017-Feb-16 12:30N 28°58' W 013°32'0 0.0
2017-Feb-16 11:33N 28°58' W 013°32'0 0.0
2017-Feb-16 10:33N 28°58' W 013°32'0 0.0
2017-Feb-16 09:24N 28°58' W 013°32'0 0.0
2017-Feb-16 08:30N 28°58' W 013°32'8 8.5
2017-Feb-16 07:33N 28°59' W 013°23'1716.6
2017-Feb-16 06:33N 29°06' W 013°05'1716.7
2017-Feb-16 05:33N 29°12' W 012°48'1716.8
2017-Feb-16 04:33N 29°19' W 012°30'  
Track history (hours):
 
Tides and Currents Weather Stations Pressure Air Temp Water Temp Dewpoint Dewpoint Depression Visibility Wind Speed Wind Dir Waves Ship Positions

Thomson Majesty

Last reported at 2017-Feb-26 03:31 UTC. Time now 2017-Feb-28 05:40 UTC.
Position N 28°39' W 016°18'.

Length 207 m; draft 6.2 m.

Type: Ship. MMSI: 248124000.

Date/timePositionNaut miles runAvg speedWind from/ knotsBaromVisibWave heightAir tempDewpointWater temp
2017-Feb-26 03:31N 28°39' W 016°18'1313.0
2017-Feb-26 02:33N 28°35' W 016°04'1413.8
2017-Feb-26 01:33N 28°27' W 015°51'1413.8
2017-Feb-26 00:33N 28°20' W 015°37'1413.6
2017-Feb-25 23:33N 28°13' W 015°24'5 5.2
2017-Feb-25 22:33N 28°08' W 015°25'0 0.0
2017-Feb-25 21:33N 28°08' W 015°25'0 0.0
2017-Feb-25 20:27N 28°08' W 015°25'0 0.0
2017-Feb-25 19:24N 28°08' W 015°25'0 0.0
2017-Feb-25 18:27N 28°08' W 015°25'0 0.0
2017-Feb-25 17:30N 28°08' W 015°25'0 0.0
2017-Feb-25 16:30N 28°08' W 015°25'0 0.0
2017-Feb-25 15:30N 28°08' W 015°25'0 0.0
2017-Feb-25 14:18N 28°08' W 015°25'0 0.0
2017-Feb-25 13:33N 28°08' W 015°25'0 0.0
2017-Feb-25 12:33N 28°08' W 015°25'0 0.0
2017-Feb-25 11:33N 28°08' W 015°25'0 0.0
2017-Feb-25 10:33N 28°08' W 015°25'0 0.0
2017-Feb-25 09:33N 28°08' W 015°25'0 0.0
2017-Feb-25 08:33N 28°08' W 015°25'0 0.0
2017-Feb-25 07:33N 28°08' W 015°25'7 7.0
2017-Feb-25 06:33N 28°11' W 015°18'1010.2
2017-Feb-25 05:34N 28°21' W 015°17'1110.9
2017-Feb-25 04:33N 28°28' W 015°26'1111.1
2017-Feb-25 03:34N 28°34' W 015°37'10 9.7
2017-Feb-25 02:33N 28°28' W 015°46'1010.2
2017-Feb-25 01:33N 28°23' W 015°56'1211.7
2017-Feb-25 00:33N 28°26' W 016°09'6 4.5
2017-Feb-24 23:20N 28°28' W 016°15'0 0.0
2017-Feb-24 22:26N 28°28' W 016°15'0 0.0
2017-Feb-24 21:26N 28°28' W 016°15'0 0.0
2017-Feb-24 20:08N 28°28' W 016°15'0 0.0
2017-Feb-24 19:29N 28°28' W 016°15'0 0.0
2017-Feb-24 18:26N 28°28' W 016°15'0 0.0
2017-Feb-24 17:32N 28°28' W 016°15'0 0.0
2017-Feb-24 16:32N 28°28' W 016°15'0 0.0
2017-Feb-24 15:32N 28°28' W 016°15'0 0.0
2017-Feb-24 14:32N 28°28' W 016°15'0 0.0
2017-Feb-24 13:32N 28°28' W 016°15'0 0.0
2017-Feb-24 12:32N 28°28' W 016°15'0 0.0
2017-Feb-24 11:32N 28°28' W 016°15'0 0.0
2017-Feb-24 10:32N 28°28' W 016°15'0 0.0
2017-Feb-24 08:26N 28°28' W 016°15'0 0.0
2017-Feb-24 07:26N 28°28' W 016°15'0 0.0
2017-Feb-24 06:26N 28°28' W 016°15'0 0.0
2017-Feb-24 05:29N 28°28' W 016°15'1010.9
2017-Feb-24 04:33N 28°27' W 016°03'1211.9
2017-Feb-24 03:33N 28°31' W 015°51'1312.6
2017-Feb-24 02:33N 28°39' W 015°39'1313.0
2017-Feb-24 01:33N 28°40' W 015°25'1312.8
2017-Feb-24 00:33N 28°42' W 015°10'1312.7
2017-Feb-23 23:33N 28°43' W 014°56'1212.5
2017-Feb-23 22:33N 28°45' W 014°41'2712.7
2017-Feb-23 20:24N 28°48' W 014°10'1113.1
2017-Feb-23 19:33N 28°49' W 013°58'1110.9
2017-Feb-23 18:33N 28°46' W 013°46'1312.2
2017-Feb-23 17:31N 28°33' W 013°48'5 0.5
2017-Feb-23 07:32N 28°30' W 013°51'1111.0
2017-Feb-23 06:31N 28°35' W 013°40'1 1.5
2017-Feb-23 05:33N 28°36' W 013°39'1 1.1
2017-Feb-23 04:33N 28°36' W 013°38'1 1.2
2017-Feb-23 03:33N 28°37' W 013°37'1 1.0
2017-Feb-23 02:33N 28°38' W 013°36'1 1.2
2017-Feb-23 01:33N 28°39' W 013°35'1 1.2
2017-Feb-23 00:33N 28°40' W 013°34'1 0.9
2017-Feb-22 23:31N 28°40' W 013°34'1 1.2
2017-Feb-22 22:32N 28°41' W 013°33'1 1.3
2017-Feb-22 21:33N 28°42' W 013°32'2 2.2
2017-Feb-22 20:32N 28°40' W 013°31'4 3.6
2017-Feb-22 19:32N 28°41' W 013°27'1212.6
2017-Feb-22 18:33N 28°53' W 013°31'5 2.3
2017-Feb-22 16:31N 28°58' W 013°32'0 0.0
2017-Feb-22 15:31N 28°58' W 013°32'0 0.0
2017-Feb-22 14:31N 28°58' W 013°32'0 0.0
2017-Feb-22 13:31N 28°58' W 013°32'0 0.0
2017-Feb-22 12:25N 28°58' W 013°32'0 0.0
2017-Feb-22 11:31N 28°58' W 013°32'0 0.0
2017-Feb-22 10:31N 28°58' W 013°32'0 0.0
2017-Feb-22 09:25N 28°58' W 013°32'0 0.0
2017-Feb-22 08:31N 28°58' W 013°32'0 0.1
2017-Feb-22 07:33N 28°58' W 013°32'7 7.4
2017-Feb-22 06:33N 28°52' W 013°36'1111.0
2017-Feb-22 05:32N 28°49' W 013°49'1111.2
2017-Feb-22 04:32N 28°55' W 013°59'  
2017-Feb-18 10:32N 28°08' W 015°25'0 0.0
2017-Feb-18 09:32N 28°08' W 015°25'0 0.0
2017-Feb-18 08:32N 28°08' W 015°25'0 0.0
2017-Feb-18 07:32N 28°08' W 015°25'2 1.7
2017-Feb-18 06:33N 28°07' W 015°24'1414.4
2017-Feb-18 05:33N 28°20' W 015°18'1111.2
2017-Feb-18 04:33N 28°28' W 015°27'1211.7
2017-Feb-18 03:33N 28°34' W 015°38'1111.3
2017-Feb-18 02:33N 28°27' W 015°48'1010.4
2017-Feb-18 01:33N 28°22' W 015°58'1211.8
2017-Feb-18 00:33N 28°27' W 016°10'4 3.1
2017-Feb-17 23:22N 28°28' W 016°15'0 0.0
2017-Feb-17 22:04N 28°28' W 016°15'0 0.0
2017-Feb-17 21:25N 28°28' W 016°15'0 0.0
2017-Feb-17 20:10N 28°28' W 016°15'0 0.0
2017-Feb-17 19:25N 28°28' W 016°15'0 0.0
2017-Feb-17 18:28N 28°28' W 016°15'0 0.0
2017-Feb-17 17:28N 28°28' W 016°15'0 0.0
2017-Feb-17 16:28N 28°28' W 016°15'0 0.0
2017-Feb-17 15:28N 28°28' W 016°15'0 0.0
2017-Feb-17 14:31N 28°28' W 016°15'0 0.0
2017-Feb-17 13:31N 28°28' W 016°15'0 0.0
2017-Feb-17 12:28N 28°28' W 016°15'0 0.0
2017-Feb-17 11:31N 28°28' W 016°15'0 0.0
2017-Feb-17 10:31N 28°28' W 016°15'0 0.0
2017-Feb-17 09:31N 28°28' W 016°15'0 0.0
2017-Feb-17 08:07N 28°28' W 016°15'0 0.0
2017-Feb-17 07:25N 28°28' W 016°15'0 0.0
2017-Feb-17 06:25N 28°28' W 016°15'0 0.0
2017-Feb-17 05:28N 28°28' W 016°15'8 8.6
2017-Feb-17 04:33N 28°27' W 016°06'1515.5
2017-Feb-17 03:33N 28°33' W 015°49'1615.6
2017-Feb-17 02:33N 28°40' W 015°33'1616.5
2017-Feb-17 01:33N 28°41' W 015°15'1414.2
2017-Feb-17 00:33N 28°43' W 014°59'1312.9
2017-Feb-16 23:33N 28°44' W 014°44'1312.9
2017-Feb-16 22:33N 28°46' W 014°29'1313.0
2017-Feb-16 21:33N 28°47' W 014°15'1312.8
2017-Feb-16 20:33N 28°48' W 013°60'1312.6
2017-Feb-16 19:33N 28°49' W 013°46'1313.0
2017-Feb-16 18:33N 28°56' W 013°33'3 2.6
2017-Feb-16 17:30N 28°58' W 013°32'0 0.0
2017-Feb-16 15:24N 28°58' W 013°32'0 0.0
2017-Feb-16 14:30N 28°58' W 013°32'0 0.0
2017-Feb-16 13:30N 28°58' W 013°32'0 0.0
2017-Feb-16 12:30N 28°58' W 013°32'0 0.0
2017-Feb-16 11:33N 28°58' W 013°32'0 0.0
2017-Feb-16 10:33N 28°58' W 013°32'0 0.0
2017-Feb-16 09:24N 28°58' W 013°32'0 0.0
2017-Feb-16 08:30N 28°58' W 013°32'8 8.5
2017-Feb-16 07:33N 28°59' W 013°23'1716.6
2017-Feb-16 06:33N 29°06' W 013°05'1716.7
2017-Feb-16 05:33N 29°12' W 012°48'1716.8
2017-Feb-16 04:33N 29°19' W 012°30'  

Dump ship's entire track history